Time;durP1;ratioP1;P1;durP2;ratioP2;P2;SDS_P1;SDS_P2;PMS_P1;PMS_P2;Temp;Humidity;BMP_temperature;BMP_pressure;BME280_temperature;BME280_humidity;BME280_pressure;Samples;Min_cycle;Max_cycle;Signal;HPM_P1;HPM_P2
2022/12/28 00:01:34;;;;;;;9.27;4.18;;;5.80;99.90;;;;;;5052577;28;20168;-85
2022/12/28 00:04:02;;;;;;;9.02;4.43;;;5.80;99.90;;;;;;5053594;28;20496;-85
2022/12/28 00:06:33;;;;;;;13.35;5.10;;;5.80;99.90;;;;;;5052062;28;20090;-85
2022/12/28 00:08:59;;;;;;;7.13;4.18;;;5.80;99.90;;;;;;5051921;28;20131;-85
2022/12/28 00:11:27;;;;;;;9.50;4.60;;;5.80;99.90;;;;;;5052297;28;20323;-84
2022/12/28 00:13:58;;;;;;;9.00;4.18;;;5.80;99.90;;;;;;5053066;28;20029;-84
2022/12/28 00:16:38;;;;;;;9.95;4.35;;;5.80;99.90;;;;;;5052155;28;20465;-84
2022/12/28 00:19:09;;;;;;;7.47;4.15;;;5.80;99.90;;;;;;5051397;28;20372;-85
2022/12/28 00:21:35;;;;;;;8.50;3.80;;;5.80;99.90;;;;;;5052235;28;20044;-85
2022/12/28 00:24:01;;;;;;;10.73;4.18;;;5.80;99.90;;;;;;5052978;28;20033;-86
2022/12/28 00:26:29;;;;;;;8.70;4.13;;;5.80;99.90;;;;;;5051576;28;20044;-85
2022/12/28 00:28:55;;;;;;;14.00;5.35;;;5.80;99.90;;;;;;5052073;28;20520;-84
2022/12/28 00:31:23;;;;;;;11.95;4.90;;;5.80;99.90;;;;;;5051990;28;20064;-85
2022/12/28 00:33:49;;;;;;;9.63;4.63;;;5.80;99.90;;;;;;5051999;28;20029;-85
2022/12/28 00:36:18;;;;;;;10.02;4.45;;;5.80;99.90;;;;;;5051455;28;20453;-85
2022/12/28 00:38:44;;;;;;;10.65;4.75;;;5.80;99.90;;;;;;5052915;28;20024;-85
2022/12/28 00:41:10;;;;;;;8.18;4.15;;;5.80;99.90;;;;;;5051882;28;20037;-86
2022/12/28 00:43:37;;;;;;;11.00;4.72;;;5.80;99.90;;;;;;5034850;28;20029;-85
2022/12/28 00:46:03;;;;;;;8.30;4.55;;;5.90;99.90;;;;;;5051345;28;20065;-85
2022/12/28 00:48:31;;;;;;;9.05;4.45;;;5.90;99.90;;;;;;5052738;28;20419;-85
2022/12/28 00:51:10;;;;;;;9.43;4.45;;;5.90;99.90;;;;;;5052782;28;20056;-86
2022/12/28 00:53:36;;;;;;;8.85;4.10;;;5.90;99.90;;;;;;5051616;28;20021;-85
2022/12/28 00:56:15;;;;;;;10.85;4.85;;;6.00;99.90;;;;;;5052730;28;20025;-85
2022/12/28 00:58:41;;;;;;;7.63;5.03;;;5.90;99.90;;;;;;5051746;28;20024;-86
2022/12/28 01:01:23;;;;;;;8.98;4.80;;;6.00;99.90;;;;;;5051374;28;20043;-85
2022/12/28 01:03:49;;;;;;;8.35;3.92;;;6.00;99.90;;;;;;5035791;28;20040;-85
2022/12/28 01:06:19;;;;;;;10.10;4.10;;;6.00;99.90;;;;;;5051972;28;20032;-85
2022/12/28 01:08:45;;;;;;;9.98;4.68;;;6.00;99.90;;;;;;5052924;28;20029;-87
2022/12/28 01:11:28;;;;;;;9.27;4.60;;;6.10;99.90;;;;;;5051947;28;20025;-86
2022/12/28 01:13:57;;;;;;;9.68;4.20;;;6.10;99.90;;;;;;5048272;28;20040;-86
2022/12/28 01:16:26;;;;;;;8.73;4.75;;;6.10;99.90;;;;;;5052031;28;20029;-85
2022/12/28 01:18:54;;;;;;;7.35;4.97;;;6.20;99.90;;;;;;5051844;28;20037;-86
2022/12/28 01:21:26;;;;;;;9.13;5.03;;;6.20;99.90;;;;;;5051853;28;20029;-87
2022/12/28 01:23:56;;;;;;;8.18;4.40;;;6.20;99.90;;;;;;5052801;28;20033;-86
2022/12/28 01:26:23;;;;;;;10.23;5.10;;;6.30;99.90;;;;;;5051534;28;20044;-85
2022/12/28 01:28:49;;;;;;;8.52;4.47;;;6.30;99.90;;;;;;5051679;28;20063;-85
2022/12/28 01:31:17;;;;;;;10.70;5.07;;;6.40;99.90;;;;;;5052550;28;20032;-86
2022/12/28 01:33:43;;;;;;;9.68;4.50;;;6.40;99.90;;;;;;5051764;28;20025;-86
2022/12/28 01:36:12;;;;;;;9.07;5.05;;;6.40;99.90;;;;;;5035075;28;20072;-88
2022/12/28 01:38:38;;;;;;;10.38;5.40;;;6.50;99.90;;;;;;5051801;28;20342;-86
2022/12/28 01:41:13;;;;;;;7.90;5.15;;;6.50;99.90;;;;;;5051134;28;20048;-85
2022/12/28 01:43:50;;;;;;;10.13;4.85;;;6.50;99.90;;;;;;5051533;28;20424;-85
2022/12/28 01:46:20;;;;;;;13.60;5.60;;;6.50;99.90;;;;;;5052821;28;20057;-86
2022/12/28 01:48:51;;;;;;;7.70;4.45;;;6.50;99.90;;;;;;5054776;28;20029;-85
2022/12/28 01:51:19;;;;;;;10.95;4.78;;;6.60;99.90;;;;;;5055203;28;20025;-86
2022/12/28 01:53:46;;;;;;;9.55;4.97;;;6.60;99.90;;;;;;5054857;28;20017;-86
2022/12/28 01:56:12;;;;;;;10.63;5.35;;;6.60;99.90;;;;;;5054810;28;20523;-86
2022/12/28 01:58:38;;;;;;;9.23;4.95;;;6.60;99.90;;;;;;5056086;28;20111;-86
2022/12/28 02:01:04;;;;;;;10.57;5.72;;;6.70;99.90;;;;;;5054995;28;20488;-86
2022/12/28 02:03:32;;;;;;;7.88;4.70;;;6.60;99.90;;;;;;5055064;28;20033;-86
2022/12/28 02:06:00;;;;;;;9.18;4.30;;;6.60;99.90;;;;;;5054616;28;20021;-87
2022/12/28 02:08:42;;;;;;;11.45;4.88;;;6.70;99.90;;;;;;5054061;28;20025;-86
2022/12/28 02:11:12;;;;;;;9.70;5.22;;;6.70;99.90;;;;;;5055663;28;20361;-87
2022/12/28 02:13:39;;;;;;;8.65;4.50;;;6.70;99.90;;;;;;5054888;28;20025;-85
2022/12/28 02:16:05;;;;;;;7.03;4.68;;;6.70;99.90;;;;;;5053775;28;20029;-85
2022/12/28 02:18:31;;;;;;;9.13;5.05;;;6.70;99.90;;;;;;5054769;28;20486;-85
2022/12/28 02:21:18;;;;;;;8.98;4.97;;;6.70;99.90;;;;;;5054725;28;20029;-85
2022/12/28 02:24:06;;;;;;;8.35;5.07;;;6.70;99.90;;;;;;5054775;28;20036;-85
2022/12/28 02:26:43;;;;;;;10.18;5.30;;;6.70;99.90;;;;;;5054111;28;20140;-85
2022/12/28 02:29:36;;;;;;;8.90;4.53;;;6.70;99.90;;;;;;5056107;28;20021;-85
2022/12/28 02:32:19;;;;;;;8.02;4.55;;;6.70;99.90;;;;;;5054591;28;20458;-85
2022/12/28 02:35:05;;;;;;;;;;;6.70;99.90;;;;;;5054977;28;20063;-85
2022/12/28 02:37:40;;;;;;;7.43;4.55;;;6.70;99.90;;;;;;5054463;28;19901;-86
2022/12/28 02:40:23;;;;;;;8.75;4.93;;;6.70;99.90;;;;;;5054507;28;20033;-88
2022/12/28 02:42:51;;;;;;;13.80;5.03;;;6.70;99.90;;;;;;5054599;28;20025;-85
2022/12/28 02:52:03;;;;;;;10.68;4.50;;;6.70;99.90;;;;;;5055569;28;20039;-84
2022/12/28 02:57:56;;;;;;;7.38;4.43;;;6.60;99.90;;;;;;5055504;28;20535;-85
2022/12/28 03:00:27;;;;;;;7.78;4.80;;;6.60;99.90;;;;;;5054665;28;20079;-86
2022/12/28 03:03:35;;;;;;;8.23;4.10;;;6.60;99.90;;;;;;5037896;28;20036;-84
2022/12/28 03:09:02;;;;;;;8.90;4.63;;;6.60;99.90;;;;;;5055016;28;20040;-85
2022/12/28 03:11:38;;;;;;;9.63;4.90;;;6.60;99.90;;;;;;5053815;28;20028;-84
2022/12/28 03:14:12;;;;;;;8.40;5.38;;;6.60;99.90;;;;;;5053898;28;20124;-84
2022/12/28 03:33:27;;;;;;;8.52;5.55;;;6.70;99.90;;;;;;5054738;28;20063;-85
2022/12/28 03:36:12;;;;;;;11.10;5.85;;;6.70;99.90;;;;;;5053508;28;20029;-86
2022/12/28 03:38:45;;;;;;;8.73;5.88;;;6.60;99.90;;;;;;5053631;28;20029;-85
2022/12/28 03:41:28;;;;;;;9.15;6.05;;;6.70;99.90;;;;;;5054075;28;20464;-85
2022/12/28 03:43:59;;;;;;;8.65;5.75;;;6.70;99.90;;;;;;5053822;28;20056;-87
2022/12/28 03:46:42;;;;;;;8.00;5.85;;;6.70;99.90;;;;;;5054594;28;20032;-86
2022/12/28 03:49:08;;;;;;;6.88;5.07;;;6.80;99.90;;;;;;5053041;28;20029;-85
2022/12/28 03:51:34;;;;;;;10.05;5.53;;;6.80;99.90;;;;;;5052384;28;20135;-85
2022/12/28 03:54:00;;;;;;;7.43;5.38;;;6.80;99.90;;;;;;5052490;28;20032;-85
2022/12/28 03:56:27;;;;;;;8.80;6.15;;;6.80;99.90;;;;;;5052813;28;20021;-85
2022/12/28 03:58:53;;;;;;;13.68;6.35;;;6.80;99.90;;;;;;5052431;28;20033;-85
2022/12/28 04:01:19;;;;;;;9.02;5.43;;;6.80;99.90;;;;;;5052488;28;20033;-85
2022/12/28 04:03:45;;;;;;;8.18;5.70;;;6.90;99.90;;;;;;5053959;28;20116;-85
2022/12/28 04:06:16;;;;;;;11.00;5.68;;;6.90;99.90;;;;;;5052763;28;20068;-85
2022/12/28 04:08:43;;;;;;;9.02;6.53;;;6.90;99.90;;;;;;5052855;28;20131;-86
2022/12/28 04:11:09;;;;;;;8.93;6.22;;;6.90;99.90;;;;;;5053658;28;20041;-86
2022/12/28 04:13:35;;;;;;;9.05;6.35;;;7.00;99.90;;;;;;5052460;28;20036;-85
2022/12/28 04:16:07;;;;;;;8.77;5.63;;;7.00;99.90;;;;;;5052471;28;20029;-85
2022/12/28 04:18:33;;;;;;;8.52;5.55;;;7.00;99.90;;;;;;5052313;28;20025;-85
2022/12/28 04:21:00;;;;;;;9.43;6.65;;;7.00;99.90;;;;;;5052356;28;20025;-85
2022/12/28 04:23:26;;;;;;;9.60;6.72;;;7.00;99.90;;;;;;5052571;28;20036;-85
2022/12/28 04:26:04;;;;;;;10.32;6.88;;;7.10;99.90;;;;;;5056977;28;20119;-85
2022/12/28 04:28:31;;;;;;;8.23;6.13;;;7.10;99.90;;;;;;5055597;28;20124;-85
2022/12/28 04:30:58;;;;;;;8.57;6.43;;;7.10;99.90;;;;;;5055431;28;20033;-87
2022/12/28 04:33:26;;;;;;;9.70;7.65;;;7.10;99.90;;;;;;5073875;28;20074;-85
2022/12/28 04:35:52;;;;;;;9.98;6.22;;;7.10;99.90;;;;;;5073611;28;20460;-85
2022/12/28 04:38:20;;;;;;;8.60;6.15;;;7.10;99.90;;;;;;5055568;28;20021;-85
2022/12/28 04:40:46;;;;;;;8.45;6.28;;;7.20;99.90;;;;;;5073133;28;20104;-85
2022/12/28 04:43:11;;;;;;;8.57;6.45;;;7.20;99.90;;;;;;5055393;28;20032;-85
2022/12/28 04:45:37;;;;;;;9.00;6.57;;;7.20;99.90;;;;;;5054692;28;20025;-85
2022/12/28 04:48:03;;;;;;;9.95;6.88;;;7.20;99.90;;;;;;5055433;28;20017;-85
2022/12/28 04:50:29;;;;;;;9.13;6.97;;;7.20;99.90;;;;;;5055399;28;20050;-85
2022/12/28 04:52:55;;;;;;;8.45;6.22;;;7.20;99.90;;;;;;5055315;28;20032;-85
2022/12/28 04:55:21;;;;;;;8.95;6.93;;;7.30;99.90;;;;;;5054753;28;20061;-86
2022/12/28 04:57:46;;;;;;;9.05;6.20;;;7.30;99.90;;;;;;5055430;28;20028;-85
2022/12/28 05:00:13;;;;;;;10.70;6.53;;;7.30;99.90;;;;;;5073022;28;20043;-85
2022/12/28 05:02:39;;;;;;;9.77;7.18;;;7.30;99.90;;;;;;5054975;28;20029;-86
2022/12/28 05:05:06;;;;;;;15.68;8.07;;;7.40;99.90;;;;;;5055431;28;20051;-85
2022/12/28 05:07:32;;;;;;;10.32;7.65;;;7.40;99.90;;;;;;5055122;28;20448;-86
2022/12/28 05:09:57;;;;;;;9.35;7.47;;;7.50;99.90;;;;;;5073320;28;20032;-86
2022/12/28 05:12:24;;;;;;;10.95;8.13;;;7.50;99.90;;;;;;5054471;28;20090;-85
2022/12/28 05:14:50;;;;;;;10.48;7.88;;;7.50;99.90;;;;;;5073333;28;20341;-85
2022/12/28 05:17:15;;;;;;;11.77;8.15;;;7.50;99.90;;;;;;5055410;28;20032;-85
2022/12/28 05:19:41;;;;;;;10.98;7.45;;;7.50;99.90;;;;;;5055195;28;20397;-86
2022/12/28 05:22:11;;;;;;;10.50;7.60;;;7.60;99.90;;;;;;5055972;28;20029;-86
2022/12/28 05:24:37;;;;;;;9.18;7.60;;;7.60;99.90;;;;;;5059299;28;20032;-86
2022/12/28 05:27:03;;;;;;;10.65;6.95;;;7.50;99.90;;;;;;5076811;28;20074;-86
2022/12/28 05:29:29;;;;;;;9.65;7.18;;;7.60;99.90;;;;;;5059176;28;20032;-86
2022/12/28 05:31:56;;;;;;;12.68;8.43;;;7.60;99.90;;;;;;5059154;28;20108;-85
2022/12/28 05:34:22;;;;;;;9.43;7.18;;;7.60;99.90;;;;;;5042399;28;20472;-86
2022/12/28 05:36:47;;;;;;;11.32;7.88;;;7.60;99.90;;;;;;5059194;28;20025;-85
2022/12/28 05:39:13;;;;;;;13.52;7.85;;;7.60;99.90;;;;;;5057667;28;20040;-85
2022/12/28 05:41:39;;;;;;;8.93;7.30;;;7.60;99.90;;;;;;5059175;28;20376;-86
2022/12/28 05:44:05;;;;;;;9.68;7.47;;;7.70;99.90;;;;;;5058372;28;20465;-85
2022/12/28 05:46:33;;;;;;;10.25;7.88;;;7.70;99.90;;;;;;5058718;28;20371;-85
2022/12/28 05:49:02;;;;;;;11.18;7.57;;;7.70;99.90;;;;;;5058649;28;20102;-85
2022/12/28 05:51:30;;;;;;;10.05;7.47;;;7.70;99.90;;;;;;5058719;28;20050;-85
2022/12/28 05:54:03;;;;;;;9.57;7.35;;;7.70;99.90;;;;;;5058647;28;20032;-85
2022/12/28 05:56:29;;;;;;;8.93;6.90;;;7.70;99.90;;;;;;5076340;28;20495;-85
2022/12/28 05:58:57;;;;;;;11.07;7.50;;;7.70;99.90;;;;;;5058231;28;20052;-85
2022/12/28 06:01:26;;;;;;;8.70;7.07;;;7.80;99.90;;;;;;5058223;28;20098;-84
2022/12/28 06:03:55;;;;;;;14.95;8.45;;;7.80;99.90;;;;;;5058453;28;20040;-85
2022/12/28 06:06:23;;;;;;;11.68;7.65;;;7.80;99.90;;;;;;5058457;28;20357;-84
2022/12/28 06:08:49;;;;;;;9.65;7.18;;;7.80;99.90;;;;;;5058211;28;20048;-85
2022/12/28 06:11:18;;;;;;;7.32;6.50;;;7.80;99.90;;;;;;5075235;28;20032;-85
2022/12/28 06:13:44;;;;;;;9.05;6.50;;;7.80;99.90;;;;;;5057284;28;20052;-85
2022/12/28 06:16:23;;;;;;;9.68;5.88;;;7.80;99.90;;;;;;5057553;28;20449;-85
2022/12/28 06:18:50;;;;;;;7.70;6.20;;;7.90;99.90;;;;;;5075412;28;20029;-86
2022/12/28 06:21:22;;;;;;;8.70;6.00;;;7.90;99.90;;;;;;5057402;28;20040;-87
2022/12/28 06:23:49;;;;;;;7.30;5.82;;;7.90;99.90;;;;;;5057087;28;20040;-86
2022/12/28 06:26:18;;;;;;;9.95;6.28;;;7.90;99.90;;;;;;5056837;28;20135;-86
2022/12/28 06:28:45;;;;;;;10.25;5.90;;;7.90;99.90;;;;;;5075132;28;20024;-86
2022/12/28 06:31:14;;;;;;;7.82;5.32;;;7.90;99.90;;;;;;5074899;28;20036;-86
2022/12/28 06:33:40;;;;;;;7.00;5.55;;;7.90;99.90;;;;;;5056060;28;20116;-85
2022/12/28 06:36:23;;;;;;;6.85;5.65;;;8.00;99.90;;;;;;5074523;28;20039;-85
2022/12/28 06:38:50;;;;;;;8.18;6.55;;;8.00;99.90;;;;;;5056728;28;20025;-85
2022/12/28 06:41:19;;;;;;;8.23;6.38;;;8.00;99.90;;;;;;5056830;28;20075;-85
2022/12/28 06:43:46;;;;;;;8.80;6.18;;;8.00;99.90;;;;;;5074853;28;20028;-85
2022/12/28 06:46:13;;;;;;;7.38;6.07;;;8.00;99.90;;;;;;5056706;28;20043;-86
2022/12/28 06:48:39;;;;;;;8.30;5.95;;;8.00;99.90;;;;;;5056998;28;20056;-85
2022/12/28 06:51:21;;;;;;;7.80;5.30;;;8.00;99.90;;;;;;5056430;28;20024;-85
2022/12/28 06:53:48;;;;;;;8.00;5.50;;;8.10;99.90;;;;;;5062641;28;20032;-85
2022/12/28 06:56:20;;;;;;;7.75;5.80;;;8.10;99.90;;;;;;5069110;28;20375;-86
2022/12/28 06:58:47;;;;;;;7.90;6.15;;;8.10;99.90;;;;;;5073834;28;20060;-85
2022/12/28 07:01:26;;;;;;;6.57;5.25;;;8.10;99.90;;;;;;5073652;28;20073;-86
2022/12/28 07:03:55;;;;;;;9.82;6.05;;;8.10;99.90;;;;;;5074855;28;20024;-85
2022/12/28 07:06:23;;;;;;;8.73;5.20;;;8.10;99.90;;;;;;5056907;28;20124;-85
2022/12/28 07:08:50;;;;;;;6.30;5.65;;;8.20;99.90;;;;;;5056277;28;20078;-86
2022/12/28 07:11:20;;;;;;;8.10;5.72;;;8.20;99.90;;;;;;5074256;28;20051;-87
2022/12/28 07:13:47;;;;;;;8.63;6.50;;;8.20;99.90;;;;;;5040902;28;20016;-86
2022/12/28 07:16:15;;;;;;;7.32;5.63;;;8.20;99.90;;;;;;5074888;28;20034;-85
2022/12/28 07:18:43;;;;;;;7.47;5.20;;;8.30;99.90;;;;;;5056867;28;20021;-86
2022/12/28 07:21:26;;;;;;;7.07;5.10;;;8.30;99.90;;;;;;5056814;28;20037;-85
2022/12/28 07:23:55;;;;;;;8.05;5.70;;;8.30;99.90;;;;;;5074626;28;20479;-85
2022/12/28 07:26:23;;;;;;;6.13;5.10;;;8.20;99.90;;;;;;5056573;28;20040;-87
2022/12/28 07:28:51;;;;;;;6.85;5.85;;;8.30;99.90;;;;;;5057875;28;20402;-85
2022/12/28 07:31:25;;;;;;;7.53;5.35;;;8.30;99.90;;;;;;5074758;28;20028;-85
2022/12/28 07:33:54;;;;;;;9.25;5.60;;;8.30;99.90;;;;;;5074356;28;20016;-85
2022/12/28 07:36:21;;;;;;;7.32;5.03;;;8.30;99.90;;;;;;5074553;28;20036;-85
2022/12/28 07:38:56;;;;;;;7.57;5.70;;;8.30;99.90;;;;;;5056503;28;20021;-85
2022/12/28 07:41:35;;;;;;;7.10;5.88;;;8.30;99.90;;;;;;5074603;28;20028;-85
2022/12/28 07:44:03;;;;;;;7.32;5.20;;;8.30;99.90;;;;;;5056448;28;20453;-85
2022/12/28 07:46:35;;;;;;;6.60;5.30;;;8.30;99.90;;;;;;5055108;28;20048;-84
2022/12/28 07:49:12;;;;;;;8.63;6.00;;;8.30;99.90;;;;;;5055795;28;20029;-85
2022/12/28 07:51:38;;;;;;;6.95;5.85;;;8.30;99.90;;;;;;5070608;28;20037;-85
2022/12/28 07:54:05;;;;;;;8.90;5.75;;;8.30;99.90;;;;;;5072662;28;20068;-86
2022/12/28 07:56:32;;;;;;;8.10;6.03;;;8.40;99.90;;;;;;5073768;28;20028;-85
2022/12/28 07:59:01;;;;;;;6.82;5.80;;;8.40;99.90;;;;;;5069147;28;20033;-85
2022/12/28 08:01:33;;;;;;;9.75;5.85;;;8.40;99.90;;;;;;5035979;28;20029;-85
2022/12/28 08:04:01;;;;;;;7.35;6.28;;;8.40;99.90;;;;;;5050070;28;20089;-85
2022/12/28 08:06:29;;;;;;;10.02;5.28;;;8.40;99.90;;;;;;5055959;28;20020;-85
2022/12/28 08:08:58;;;;;;;8.90;5.80;;;8.50;99.90;;;;;;5056063;28;20056;-85
2022/12/28 08:11:30;;;;;;;9.10;5.85;;;8.50;99.90;;;;;;5073820;28;20102;-85
2022/12/28 08:13:57;;;;;;;7.03;5.60;;;8.50;99.90;;;;;;5055246;28;20032;-85
2022/12/28 08:16:28;;;;;;;6.82;5.95;;;8.50;99.90;;;;;;5055783;28;20029;-85
2022/12/28 08:18:55;;;;;;;8.95;6.35;;;8.50;99.90;;;;;;5039499;28;20122;-85
2022/12/28 08:21:35;;;;;;;9.27;7.00;;;8.50;99.90;;;;;;5055702;28;20036;-85
2022/12/28 08:24:03;;;;;;;10.60;6.55;;;8.50;99.90;;;;;;5052551;28;20039;-85
2022/12/28 08:26:37;;;;;;;8.50;5.93;;;8.50;99.90;;;;;;5073490;28;20052;-85
2022/12/28 08:29:07;;;;;;;;;;;8.50;99.90;;;;;;5056066;28;20116;-85
2022/12/28 08:31:54;;;;;;;8.02;6.00;;;8.40;99.90;;;;;;5055247;28;19907;-85
2022/12/28 08:34:25;;;;;;;11.95;6.35;;;8.50;99.90;;;;;;5054771;28;20029;-85
2022/12/28 08:36:55;;;;;;;9.82;6.55;;;8.50;99.90;;;;;;5054517;28;20127;-86
2022/12/28 08:39:28;;;;;;;8.50;6.55;;;8.50;99.90;;;;;;5054822;28;20074;-86
2022/12/28 08:41:54;;;;;;;10.23;6.85;;;8.50;99.90;;;;;;5055169;28;20032;-86
2022/12/28 08:44:19;;;;;;;9.07;6.55;;;8.50;99.90;;;;;;5054951;28;20043;-85
2022/12/28 08:46:45;;;;;;;10.88;6.97;;;8.50;99.90;;;;;;5054337;28;20033;-85
2022/12/28 08:49:11;;;;;;;7.82;6.20;;;8.50;99.90;;;;;;5055009;28;20025;-85
2022/12/28 08:51:40;;;;;;;10.23;5.93;;;8.50;99.90;;;;;;5072291;28;20069;-86
2022/12/28 08:54:12;;;;;;;9.60;5.78;;;8.50;99.90;;;;;;5072742;28;20541;-85
2022/12/28 08:56:42;;;;;;;8.60;6.10;;;8.50;99.90;;;;;;5072835;28;20103;-85
2022/12/28 08:59:08;;;;;;;9.95;5.90;;;8.50;99.90;;;;;;5059569;28;20475;-85
2022/12/28 09:01:40;;;;;;;6.63;5.32;;;8.50;99.90;;;;;;5054551;28;20028;-85
2022/12/28 09:04:09;;;;;;;9.00;5.80;;;8.60;99.90;;;;;;5038629;28;20028;-85
2022/12/28 09:06:43;;;;;;;9.52;5.38;;;8.50;99.90;;;;;;5054148;28;20746;-85
2022/12/28 09:09:12;;;;;;;7.00;4.90;;;8.60;99.90;;;;;;5071971;28;20029;-84
2022/12/28 09:11:41;;;;;;;6.18;4.70;;;8.60;99.90;;;;;;5072092;28;20058;-84
2022/12/28 09:14:09;;;;;;;7.38;4.90;;;8.60;99.90;;;;;;5054021;28;20028;-85
2022/12/28 09:16:37;;;;;;;5.97;4.80;;;8.60;99.90;;;;;;5054199;28;20067;-85
2022/12/28 09:19:04;;;;;;;6.78;4.88;;;8.60;99.90;;;;;;5054306;28;20059;-84
2022/12/28 09:21:33;;;;;;;5.80;4.57;;;8.60;99.90;;;;;;5071966;28;20040;-84
2022/12/28 09:23:59;;;;;;;7.05;4.45;;;8.60;99.90;;;;;;5053884;28;20025;-85
2022/12/28 09:26:28;;;;;;;5.88;4.93;;;8.60;99.90;;;;;;5053950;28;20044;-85
2022/12/28 09:28:56;;;;;;;7.88;6.00;;;8.60;99.90;;;;;;5053920;28;20053;-86
2022/12/28 09:31:24;;;;;;;9.40;5.47;;;8.70;99.90;;;;;;5054190;28;20029;-84
2022/12/28 09:33:57;;;;;;;6.88;5.03;;;8.60;99.90;;;;;;5053746;28;20328;-85
2022/12/28 09:36:24;;;;;;;9.05;6.00;;;8.70;99.90;;;;;;5054184;28;20040;-85
2022/12/28 09:38:53;;;;;;;7.22;5.25;;;8.70;99.90;;;;;;5071628;28;20033;-88
2022/12/28 09:41:25;;;;;;;6.55;4.50;;;8.70;99.90;;;;;;5053861;28;20052;-86
2022/12/28 09:44:11;;;;;;;6.25;4.93;;;8.70;99.90;;;;;;5071953;28;20029;-85
2022/12/28 09:46:40;;;;;;;10.10;5.80;;;8.70;99.90;;;;;;5054042;28;20103;-86
2022/12/28 09:49:14;;;;;;;10.75;6.35;;;8.70;99.90;;;;;;5054375;28;20059;-86
2022/12/28 09:51:49;;;;;;;9.65;6.30;;;8.70;99.90;;;;;;5054253;28;20032;-85
2022/12/28 09:54:15;;;;;;;9.82;6.00;;;8.70;99.90;;;;;;5054310;28;20029;-85
2022/12/28 09:56:43;;;;;;;10.73;6.00;;;8.70;99.90;;;;;;5053685;28;20029;-86
2022/12/28 09:59:15;;;;;;;8.10;6.07;;;8.70;99.90;;;;;;5054598;28;20032;-84
2022/12/28 10:02:02;;;;;;;8.85;5.13;;;8.70;99.90;;;;;;5054078;28;20056;-84
2022/12/28 10:04:29;;;;;;;7.97;5.63;;;8.70;99.90;;;;;;5063583;28;20032;-86
2022/12/28 10:06:56;;;;;;;10.15;6.43;;;8.70;99.90;;;;;;5043613;28;20052;-85
2022/12/28 10:09:28;;;;;;;7.60;5.60;;;8.70;99.90;;;;;;5054603;28;20127;-85
2022/12/28 10:11:54;;;;;;;7.18;5.32;;;8.70;99.90;;;;;;5075536;28;20040;-85
2022/12/28 10:14:33;;;;;;;9.70;6.32;;;8.70;99.90;;;;;;5056869;28;20036;-85
2022/12/28 10:17:06;;;;;;;8.80;5.75;;;8.70;99.90;;;;;;5057416;28;20040;-86
2022/12/28 10:19:32;;;;;;;;;;;8.80;99.90;;;;;;5057683;28;20023;-85
2022/12/28 10:22:01;;;;;;;9.40;5.07;;;8.70;99.90;;;;;;5058039;28;19905;-87
2022/12/28 10:24:28;;;;;;;6.88;5.13;;;8.70;99.90;;;;;;5058055;28;20088;-85
2022/12/28 10:26:56;;;;;;;6.43;4.80;;;8.80;99.90;;;;;;5057436;28;20131;-86
2022/12/28 10:29:23;;;;;;;7.38;4.97;;;8.80;99.90;;;;;;5057822;28;20452;-85
2022/12/28 10:32:00;;;;;;;8.23;6.15;;;8.80;99.90;;;;;;5057078;28;20032;-86
2022/12/28 10:34:27;;;;;;;9.25;4.97;;;8.80;99.90;;;;;;5057220;28;20127;-85
2022/12/28 10:36:55;;;;;;;7.32;5.28;;;8.90;99.90;;;;;;5056896;28;20108;-86
2022/12/28 10:39:31;;;;;;;7.72;5.63;;;8.80;99.90;;;;;;5056663;28;20115;-87
2022/12/28 10:41:59;;;;;;;8.50;5.72;;;8.80;99.90;;;;;;5039705;28;20424;-85
2022/12/28 10:44:28;;;;;;;10.23;6.20;;;8.80;99.90;;;;;;5076405;28;20016;-85
2022/12/28 10:47:15;;;;;;;9.20;6.00;;;8.90;99.90;;;;;;5056737;28;20036;-85
2022/12/28 10:49:51;;;;;;;6.22;5.25;;;8.90;99.90;;;;;;5074540;28;20476;-85
2022/12/28 10:52:27;;;;;;;9.05;4.78;;;8.90;99.90;;;;;;5040044;28;20044;-85
2022/12/28 10:54:56;;;;;;;7.20;5.07;;;8.90;99.90;;;;;;5056432;28;20027;-85
2022/12/28 10:57:34;;;;;;;6.80;4.63;;;8.90;99.90;;;;;;5056492;28;20082;-85
2022/12/28 11:00:20;;;;;;;7.90;4.70;;;8.90;99.90;;;;;;5056670;28;20040;-85
2022/12/28 11:02:46;;;;;;;7.40;5.10;;;9.00;99.90;;;;;;5056185;28;20060;-85
2022/12/28 11:05:23;;;;;;;6.05;4.32;;;8.90;99.90;;;;;;5074016;28;20052;-85
2022/12/28 11:08:02;;;;;;;7.13;4.20;;;9.00;99.90;;;;;;5040814;28;20078;-86
2022/12/28 11:10:31;;;;;;;5.45;3.95;;;8.90;99.90;;;;;;5056419;28;20356;-85
2022/12/28 11:13:00;;;;;;;4.75;3.58;;;9.00;99.90;;;;;;5060938;28;20024;-85
2022/12/28 11:15:35;;;;;;;5.28;3.63;;;9.00;99.90;;;;;;5040751;28;20454;-85
2022/12/28 11:18:21;;;;;;;4.57;3.10;;;9.00;99.90;;;;;;5073959;28;20025;-86
2022/12/28 11:20:50;;;;;;;5.43;3.17;;;9.00;99.90;;;;;;5056010;28;20388;-85
2022/12/28 11:23:34;;;;;;;3.50;2.70;;;9.00;99.90;;;;;;5055951;28;20372;-86
2022/12/28 11:26:00;;;;;;;3.47;2.90;;;9.00;99.90;;;;;;5041743;28;20052;-85
2022/12/28 11:28:28;;;;;;;5.47;3.40;;;9.00;99.90;;;;;;5056070;28;20484;-84
2022/12/28 11:30:55;;;;;;;4.72;2.85;;;9.00;99.90;;;;;;5055125;28;20032;-85
2022/12/28 11:33:39;;;;;;;4.03;2.90;;;9.00;99.90;;;;;;5055968;28;20028;-85
2022/12/28 11:36:11;;;;;;;3.97;2.80;;;9.00;99.90;;;;;;5055616;28;20468;-84
2022/12/28 11:38:45;;;;;;;3.95;2.78;;;9.00;99.90;;;;;;5054663;28;20031;-84
2022/12/28 11:41:39;;;;;;;3.80;2.55;;;9.00;99.90;;;;;;5054530;28;20028;-86
2022/12/28 11:44:18;;;;;;;4.05;2.75;;;9.00;99.90;;;;;;5041093;28;20464;-87
2022/12/28 11:47:15;;;;;;;3.25;2.28;;;9.00;99.90;;;;;;5054686;28;20413;-85
2022/12/28 11:49:41;;;;;;;4.15;2.65;;;9.10;99.90;;;;;;5054430;28;20399;-85
2022/12/28 11:52:33;;;;;;;4.43;2.60;;;9.00;99.90;;;;;;5054411;28;20617;-85
2022/12/28 11:55:27;;;;;;;4.00;2.72;;;9.00;99.90;;;;;;5042304;28;20410;-85
2022/12/28 11:57:53;;;;;;;4.15;2.60;;;9.00;99.90;;;;;;5038984;28;20021;-86
2022/12/28 12:00:22;;;;;;;5.25;3.30;;;9.00;99.90;;;;;;5063806;28;20093;-85
2022/12/28 12:03:00;;;;;;;5.60;2.78;;;9.00;99.90;;;;;;5055255;28;20039;-85
2022/12/28 12:05:40;;;;;;;3.47;2.88;;;9.00;99.90;;;;;;5057594;28;20025;-85
2022/12/28 12:08:18;;;;;;;4.55;2.42;;;9.00;99.90;;;;;;5059028;28;20131;-84
2022/12/28 12:10:49;;;;;;;4.25;3.13;;;9.00;99.90;;;;;;5080556;28;20036;-86
2022/12/28 12:13:27;;;;;;;5.25;3.00;;;9.00;99.90;;;;;;5046448;28;21042;-85
2022/12/28 12:16:05;;;;;;;4.63;2.85;;;9.00;99.90;;;;;;5059640;28;20056;-85
2022/12/28 12:18:45;;;;;;;4.22;2.60;;;9.00;99.90;;;;;;5046041;28;20131;-85
2022/12/28 12:21:30;;;;;;;4.38;2.65;;;9.00;99.90;;;;;;5048819;28;20465;-85
2022/12/28 12:24:15;;;;;;;4.15;3.10;;;9.00;99.90;;;;;;5049299;28;20126;-86
2022/12/28 12:26:51;;;;;;;5.85;3.42;;;9.00;99.90;;;;;;5037283;28;20041;-88
2022/12/28 12:29:25;;;;;;;4.32;3.08;;;9.00;99.90;;;;;;5047699;28;20021;-86
2022/12/28 12:32:17;;;;;;;4.88;3.22;;;8.90;99.90;;;;;;5030795;28;20423;-86
2022/12/28 12:34:50;;;;;;;5.70;3.78;;;9.00;99.90;;;;;;5029311;28;20029;-86
2022/12/28 12:37:35;;;;;;;8.05;3.38;;;9.00;99.90;;;;;;5039583;28;20033;-87
2022/12/28 12:40:13;;;;;;;7.93;3.30;;;8.90;99.90;;;;;;5029552;28;20028;-88
2022/12/28 12:43:04;;;;;;;5.22;3.45;;;8.90;99.90;;;;;;5034639;28;20029;-86
2022/12/28 12:45:47;;;;;;;4.47;3.03;;;8.90;99.90;;;;;;5033032;28;20033;-86
2022/12/28 12:48:49;;;;;;;6.22;3.28;;;8.90;99.90;;;;;;5031842;28;20116;-85
2022/12/28 12:51:24;;;;;;;5.25;3.25;;;8.90;99.90;;;;;;5038293;28;20056;-85
2022/12/28 12:54:01;;;;;;;7.25;3.45;;;8.90;99.90;;;;;;5021198;28;20035;-89
2022/12/28 12:56:47;;;;;;;6.05;4.00;;;8.90;99.90;;;;;;5043638;28;20040;-85
2022/12/28 12:59:32;;;;;;;6.82;3.50;;;9.00;99.90;;;;;;5033553;28;20040;-85
2022/12/28 13:02:12;;;;;;;7.65;3.95;;;9.00;99.90;;;;;;5031317;28;20458;-87
2022/12/28 13:04:44;;;;;;;5.47;3.40;;;9.00;99.90;;;;;;5033014;28;20034;-86
2022/12/28 13:07:23;;;;;;;5.65;3.90;;;9.00;99.90;;;;;;5045858;28;20044;-85
2022/12/28 13:10:00;;;;;;;5.15;4.00;;;9.00;99.90;;;;;;5033351;28;20029;-86
2022/12/28 13:12:26;;;;;;;8.07;4.15;;;9.00;99.90;;;;;;5049559;28;20119;-86
2022/12/28 13:15:00;;;;;;;8.52;3.58;;;9.00;99.90;;;;;;5037128;28;20546;-87
2022/12/28 13:17:27;;;;;;;10.27;3.70;;;9.00;99.90;;;;;;5048957;28;20516;-87
2022/12/28 13:20:19;;;;;;;7.55;4.07;;;9.00;99.90;;;;;;5043321;28;20473;-87
2022/12/28 13:22:47;;;;;;;6.43;3.95;;;9.00;99.90;;;;;;5030687;28;20052;-86
2022/12/28 13:25:31;;;;;;;9.80;4.78;;;9.00;99.90;;;;;;5027877;28;20124;-86
2022/12/28 13:28:02;;;;;;;6.95;4.07;;;9.00;99.90;;;;;;5032724;28;20128;-87
2022/12/28 13:30:28;;;;;;;8.23;5.07;;;9.00;99.90;;;;;;5057870;28;20037;-86
2022/12/28 13:32:58;;;;;;;10.23;4.40;;;9.00;99.90;;;;;;5061752;28;20530;-85
2022/12/28 13:35:26;;;;;;;8.20;4.60;;;9.10;99.90;;;;;;5052387;28;20021;-87
2022/12/28 13:38:13;;;;;;;7.15;3.88;;;9.10;99.90;;;;;;5050526;28;20354;-85
2022/12/28 13:40:49;;;;;;;7.95;4.90;;;9.10;99.90;;;;;;5049811;28;20423;-86
2022/12/28 13:43:51;;;;;;;8.75;4.20;;;9.10;99.90;;;;;;5049841;28;20041;-86
2022/12/28 13:46:19;;;;;;;8.75;4.00;;;9.10;99.90;;;;;;5042521;28;20032;-87
2022/12/28 13:48:49;;;;;;;7.60;3.92;;;9.10;99.90;;;;;;5058935;28;20029;-85